createdAt,value
2022-10-31T00:00:45.074Z,2.78
2022-10-31T00:03:12.062Z,2.50
2022-10-31T00:05:43.192Z,2.28
2022-10-31T00:08:09.514Z,2.38
2022-10-31T00:10:42.178Z,2.70
2022-10-31T00:13:09.474Z,2.78
2022-10-31T00:15:38.260Z,2.90
2022-10-31T00:18:05.781Z,2.72
2022-10-31T00:20:32.132Z,2.60
2022-10-31T00:22:59.869Z,2.38
2022-10-31T00:25:27.597Z,2.63
2022-10-31T00:27:54.138Z,2.53
2022-10-31T00:30:20.652Z,3.05
2022-10-31T00:32:47.494Z,2.85
2022-10-31T00:35:13.839Z,2.75
2022-10-31T00:37:40.132Z,2.80
2022-10-31T00:40:07.482Z,3.05
2022-10-31T00:42:33.806Z,2.55
2022-10-31T00:45:00.107Z,2.50
2022-10-31T00:47:26.842Z,2.55
2022-10-31T00:49:53.140Z,2.55
2022-10-31T00:52:19.467Z,2.70
2022-10-31T00:54:46.272Z,2.80
2022-10-31T00:57:13.055Z,2.50
2022-10-31T00:59:39.620Z,2.70
2022-10-31T01:02:06.137Z,2.35
2022-10-31T01:04:33.277Z,2.47
2022-10-31T01:06:59.599Z,2.25
2022-10-31T01:09:25.963Z,2.13
2022-10-31T01:11:52.941Z,2.47
2022-10-31T01:14:19.260Z,3.35
2022-10-31T01:16:45.572Z,2.83
2022-10-31T01:19:12.293Z,2.33
2022-10-31T01:21:38.619Z,2.70
2022-10-31T01:24:05.921Z,2.83
2022-10-31T01:26:34.388Z,3.00
2022-10-31T01:29:04.490Z,2.70
2022-10-31T01:31:35.149Z,2.70
2022-10-31T01:34:01.558Z,2.70
2022-10-31T01:36:30.558Z,2.17
2022-10-31T01:39:00.223Z,2.53
2022-10-31T01:41:30.151Z,2.15
2022-10-31T01:44:03.692Z,2.20
2022-10-31T01:46:34.963Z,2.33
2022-10-31T01:49:06.766Z,1.67
2022-10-31T01:51:37.266Z,2.20
2022-10-31T01:54:13.014Z,2.15
2022-10-31T01:56:43.009Z,2.30
2022-10-31T01:59:13.803Z,2.78
2022-10-31T02:01:40.798Z,2.65
2022-10-31T02:04:08.506Z,2.50
2022-10-31T02:06:48.659Z,2.13
2022-10-31T02:09:15.825Z,2.47
2022-10-31T02:11:44.925Z,1.98
2022-10-31T02:14:11.906Z,2.40
2022-10-31T02:16:38.219Z,2.15
2022-10-31T02:19:09.773Z,1.88
2022-10-31T02:21:49.414Z,2.38
2022-10-31T02:24:46.661Z,2.60
2022-10-31T02:27:41.192Z,2.72
2022-10-31T02:30:07.541Z,2.47
2022-10-31T02:32:36.884Z,2.33
2022-10-31T02:35:06.565Z,2.60
2022-10-31T02:37:38.985Z,2.35
2022-10-31T02:40:34.082Z,2.88
2022-10-31T02:46:14.414Z,2.15
2022-10-31T02:48:45.634Z,2.53
2022-10-31T02:51:13.013Z,2.40
2022-10-31T02:53:39.633Z,2.20
2022-10-31T02:56:20.837Z,2.10
2022-10-31T02:58:51.727Z,2.40
2022-10-31T03:01:39.456Z,2.72
2022-10-31T03:04:21.586Z,2.50
2022-10-31T03:06:50.989Z,2.00
2022-10-31T03:09:46.729Z,2.30
2022-10-31T03:15:07.295Z,2.15
2022-10-31T03:18:04.777Z,2.22
2022-10-31T03:20:41.327Z,2.47
2022-10-31T03:23:14.831Z,2.17
2022-10-31T03:25:42.976Z,2.15
2022-10-31T03:28:13.064Z,2.65
2022-10-31T03:30:44.586Z,2.13
2022-10-31T03:33:15.845Z,2.40
2022-10-31T03:35:46.668Z,2.55
2022-10-31T03:38:15.491Z,2.67
2022-10-31T03:40:47.616Z,2.33
2022-10-31T03:43:20.467Z,2.17
2022-10-31T03:45:48.494Z,2.30
2022-10-31T03:48:18.807Z,2.20
2022-10-31T03:51:02.215Z,2.22
2022-10-31T03:53:50.283Z,2.28
2022-10-31T03:56:32.366Z,2.53
2022-10-31T03:59:11.635Z,2.00
2022-10-31T04:01:41.167Z,2.03
2022-10-31T04:04:09.109Z,2.50
2022-10-31T04:06:38.516Z,2.17
2022-10-31T04:09:08.397Z,2.25
2022-10-31T04:11:41.606Z,2.22
2022-10-31T04:14:09.302Z,2.22
2022-10-31T04:16:35.690Z,2.45
2022-10-31T04:19:02.610Z,2.45
2022-10-31T04:21:31.179Z,4.57
2022-10-31T04:23:58.128Z,4.05
2022-10-31T04:26:24.917Z,4.75
2022-10-31T04:28:51.225Z,4.78
2022-10-31T04:31:18.765Z,4.00
2022-10-31T04:33:45.098Z,3.60
2022-10-31T04:36:11.730Z,2.90
2022-10-31T04:38:38.705Z,3.13
2022-10-31T04:41:05.161Z,2.55
2022-10-31T04:43:31.504Z,2.58
2022-10-31T04:45:58.357Z,2.85
2022-10-31T04:48:25.260Z,2.25
2022-10-31T04:50:51.591Z,2.25
2022-10-31T04:53:18.335Z,2.33
2022-10-31T04:55:44.663Z,2.50
2022-10-31T04:58:11.361Z,2.60
2022-10-31T05:00:37.693Z,2.65
2022-10-31T05:03:04.323Z,2.13
2022-10-31T05:05:32.651Z,2.10
2022-10-31T05:07:59.013Z,2.60
2022-10-31T05:10:28.277Z,2.35
2022-10-31T05:13:00.614Z,2.38
2022-10-31T05:15:28.361Z,2.60
2022-10-31T05:17:55.381Z,2.45
2022-10-31T05:20:25.446Z,2.65
2022-10-31T05:22:53.788Z,2.50
2022-10-31T05:25:21.815Z,2.38
2022-10-31T05:27:50.343Z,2.30
2022-10-31T05:30:23.279Z,2.30
2022-10-31T05:32:51.464Z,2.47
2022-10-31T05:35:20.580Z,2.58
2022-10-31T05:37:47.514Z,2.20
2022-10-31T05:40:15.712Z,2.60
2022-10-31T05:42:43.271Z,2.50
2022-10-31T05:45:18.271Z,2.40
2022-10-31T05:48:03.733Z,2.15
2022-10-31T05:50:32.777Z,2.60
2022-10-31T05:53:04.627Z,2.75
2022-10-31T05:55:31.990Z,2.28
2022-10-31T05:57:59.424Z,2.22
2022-10-31T06:00:26.937Z,2.53
2022-10-31T06:03:05.275Z,2.22
2022-10-31T06:05:32.050Z,2.13
2022-10-31T06:07:59.514Z,1.90
2022-10-31T06:10:27.426Z,2.28
2022-10-31T06:12:54.190Z,2.30
2022-10-31T06:15:24.076Z,2.63
2022-10-31T06:18:07.173Z,2.28
2022-10-31T06:20:34.721Z,1.92
2022-10-31T06:23:01.849Z,2.20
2022-10-31T06:25:29.339Z,2.58
2022-10-31T06:27:56.972Z,2.30
2022-10-31T06:30:23.415Z,1.80
2022-10-31T06:32:50.647Z,2.22
2022-10-31T06:35:17.562Z,2.47
2022-10-31T06:37:46.779Z,2.42
2022-10-31T06:40:16.003Z,2.60
2022-10-31T06:42:42.531Z,2.45
2022-10-31T06:45:09.166Z,2.47
2022-10-31T06:47:50.856Z,2.45
2022-10-31T06:50:23.301Z,2.75
2022-10-31T06:52:58.938Z,2.17
2022-10-31T06:55:27.469Z,2.10
2022-10-31T06:57:58.885Z,2.38
2022-10-31T07:00:30.838Z,2.85
2022-10-31T07:02:58.784Z,2.65
2022-10-31T07:05:26.377Z,3.35
2022-10-31T07:07:57.194Z,3.30
2022-10-31T07:10:25.409Z,4.00
2022-10-31T07:12:59.834Z,4.88
2022-10-31T07:15:28.853Z,4.63
2022-10-31T07:18:00.982Z,5.00
2022-10-31T07:20:27.361Z,5.70
2022-10-31T07:22:54.169Z,5.55
2022-10-31T07:25:20.940Z,8.45
2022-10-31T07:27:47.467Z,7.57
2022-10-31T07:30:15.562Z,6.70
2022-10-31T07:32:49.366Z,6.60
2022-10-31T07:35:19.073Z,8.57
2022-10-31T07:37:45.496Z,8.80
2022-10-31T07:40:13.036Z,9.13
2022-10-31T07:42:41.213Z,8.15
2022-10-31T07:45:10.678Z,8.82
2022-10-31T07:47:44.308Z,9.10
2022-10-31T07:50:12.805Z,11.02
2022-10-31T07:52:39.901Z,8.35
2022-10-31T07:55:06.816Z,7.22
2022-10-31T07:57:34.695Z,8.40
2022-10-31T08:00:01.966Z,8.70
2022-10-31T08:02:28.314Z,8.93
2022-10-31T08:04:58.570Z,8.38
2022-10-31T08:07:28.051Z,8.50
2022-10-31T08:09:54.918Z,8.90
2022-10-31T08:12:22.417Z,9.85
2022-10-31T08:14:49.172Z,9.45
2022-10-31T08:17:15.529Z,6.90
2022-10-31T08:19:41.852Z,5.97
2022-10-31T08:22:08.559Z,6.00
2022-10-31T08:24:34.985Z,5.47
2022-10-31T08:27:01.883Z,5.55
2022-10-31T08:29:28.188Z,4.57
2022-10-31T08:31:54.518Z,5.05
2022-10-31T08:34:21.313Z,4.50
2022-10-31T08:36:47.628Z,4.50
2022-10-31T08:39:13.959Z,4.45
2022-10-31T08:41:40.846Z,3.70
2022-10-31T08:44:07.181Z,4.13
2022-10-31T08:46:33.667Z,4.65
2022-10-31T08:49:00.343Z,4.68
2022-10-31T08:51:27.125Z,4.65
2022-10-31T08:53:53.455Z,4.80
2022-10-31T08:56:20.289Z,5.70
2022-10-31T08:58:46.643Z,4.32
2022-10-31T09:01:13.101Z,5.28
2022-10-31T09:03:39.552Z,5.80
2022-10-31T09:06:09.619Z,4.60
2022-10-31T09:08:36.956Z,5.53
2022-10-31T09:11:05.072Z,4.50
2022-10-31T09:13:31.409Z,4.90
2022-10-31T09:15:59.475Z,5.15
2022-10-31T09:18:29.328Z,5.53
2022-10-31T09:20:58.905Z,4.88
2022-10-31T09:23:25.387Z,4.47
2022-10-31T09:25:54.299Z,4.75
2022-10-31T09:28:23.170Z,4.82
2022-10-31T09:30:51.905Z,4.72
2022-10-31T09:33:19.473Z,4.75
2022-10-31T09:35:46.005Z,4.38
2022-10-31T09:38:17.610Z,5.20
2022-10-31T09:40:45.836Z,4.72
2022-10-31T09:43:31.146Z,4.15
2022-10-31T09:46:08.098Z,4.82
2022-10-31T09:49:01.669Z,4.13
2022-10-31T09:51:40.699Z,4.93
2022-10-31T09:54:16.961Z,4.47
2022-10-31T09:56:45.412Z,4.45
2022-10-31T09:59:21.809Z,4.38
2022-10-31T10:01:54.791Z,4.22
2022-10-31T10:04:50.328Z,5.10
2022-10-31T10:07:35.376Z,4.78
2022-10-31T10:10:13.050Z,5.20
2022-10-31T10:12:50.685Z,4.55
2022-10-31T10:15:41.775Z,4.72
2022-10-31T10:18:27.368Z,4.75
2022-10-31T10:21:23.414Z,5.28
2022-10-31T10:23:58.690Z,5.22
2022-10-31T10:26:35.597Z,5.78
2022-10-31T10:29:08.713Z,5.68
2022-10-31T10:31:41.190Z,4.90
2022-10-31T10:34:19.794Z,5.78
2022-10-31T10:36:53.424Z,5.60
2022-10-31T10:39:34.421Z,6.93
2022-10-31T10:42:20.199Z,6.78
2022-10-31T10:45:09.621Z,6.88
2022-10-31T10:47:43.148Z,7.43
2022-10-31T10:50:21.980Z,7.38
2022-10-31T10:53:09.305Z,5.70
2022-10-31T10:55:59.514Z,6.25
2022-10-31T10:58:26.662Z,6.47
2022-10-31T11:00:55.199Z,7.28
2022-10-31T11:03:21.605Z,7.03
2022-10-31T11:05:58.010Z,6.25
2022-10-31T11:08:35.465Z,7.28
2022-10-31T11:11:11.862Z,7.38
2022-10-31T11:13:42.145Z,6.97
2022-10-31T11:16:12.414Z,6.97
2022-10-31T11:18:42.942Z,6.80
2022-10-31T11:21:31.288Z,7.28
2022-10-31T11:24:27.097Z,7.70
2022-10-31T11:27:10.960Z,7.53
2022-10-31T11:29:38.312Z,8.45
2022-10-31T11:32:04.972Z,7.28
2022-10-31T11:34:35.810Z,7.30
2022-10-31T11:37:14.317Z,9.85
2022-10-31T11:39:43.274Z,14.00
2022-10-31T11:42:10.265Z,10.65
2022-10-31T11:44:36.956Z,10.77
2022-10-31T11:47:06.609Z,10.32
2022-10-31T11:49:37.654Z,11.48
2022-10-31T11:52:17.344Z,10.73
2022-10-31T11:55:11.409Z,12.73
2022-10-31T11:57:50.045Z,10.65
2022-10-31T12:03:25.574Z,13.30
2022-10-31T12:06:12.162Z,14.52
2022-10-31T12:08:41.127Z,14.38
2022-10-31T12:11:49.126Z,11.77
2022-10-31T12:14:27.536Z,9.35
2022-10-31T12:17:06.638Z,11.88
2022-10-31T12:19:44.163Z,13.10
2022-10-31T12:22:52.486Z,14.93
2022-10-31T12:25:31.044Z,15.27
2022-10-31T12:28:41.566Z,15.65
2022-10-31T12:31:14.617Z,17.00
2022-10-31T12:33:56.737Z,18.20
2022-10-31T12:36:37.096Z,17.00
2022-10-31T12:39:16.138Z,16.00
2022-10-31T12:42:03.047Z,15.75
2022-10-31T12:44:55.518Z,14.38
2022-10-31T12:48:11.655Z,13.57
2022-10-31T12:50:48.510Z,13.05
2022-10-31T12:53:39.303Z,14.32
2022-10-31T12:56:35.414Z,14.30
2022-10-31T12:59:13.886Z,13.05
2022-10-31T13:02:04.871Z,12.18
2022-10-31T13:04:50.941Z,12.77
2022-10-31T13:07:44.764Z,12.23
2022-10-31T13:10:13.786Z,12.70
2022-10-31T13:12:42.689Z,13.00
2022-10-31T13:15:25.882Z,12.75
2022-10-31T13:18:13.333Z,17.00
2022-10-31T13:20:54.557Z,15.95
2022-10-31T13:23:50.294Z,14.70
2022-10-31T13:26:53.376Z,14.15
2022-10-31T13:29:44.148Z,16.42
2022-10-31T13:32:11.442Z,17.17
2022-10-31T13:34:43.322Z,16.73
2022-10-31T13:37:33.611Z,17.08
2022-10-31T13:40:58.634Z,15.70
2022-10-31T13:43:43.492Z,16.77
2022-10-31T13:49:27.007Z,17.83
2022-10-31T13:51:54.013Z,18.20
2022-10-31T13:54:35.737Z,16.00
2022-10-31T13:57:02.142Z,17.75
2022-10-31T13:59:33.099Z,16.55
2022-10-31T14:02:13.758Z,15.90
2022-10-31T14:04:47.796Z,17.75
2022-10-31T14:07:18.278Z,17.75
2022-10-31T14:10:00.523Z,18.83
2022-10-31T14:12:44.234Z,20.20
2022-10-31T14:15:10.496Z,18.92
2022-10-31T14:17:47.942Z,20.08
2022-10-31T14:20:14.957Z,20.85
2022-10-31T14:22:43.077Z,18.52
2022-10-31T14:25:30.040Z,17.75
2022-10-31T14:27:57.146Z,16.08
2022-10-31T14:30:27.075Z,17.60
2022-10-31T14:32:59.200Z,15.90
2022-10-31T14:36:02.309Z,17.65
2022-10-31T14:38:51.869Z,18.33
2022-10-31T14:41:37.439Z,17.55
2022-10-31T14:44:22.494Z,16.80
2022-10-31T14:46:56.638Z,17.50
2022-10-31T14:49:44.795Z,15.52
2022-10-31T14:52:15.655Z,15.70
2022-10-31T14:54:46.886Z,16.52
2022-10-31T14:57:20.331Z,14.27
2022-10-31T14:59:52.351Z,13.20
2022-10-31T15:02:28.283Z,11.93
2022-10-31T15:04:56.515Z,11.80
2022-10-31T15:07:27.918Z,12.77
2022-10-31T15:10:03.799Z,12.88
2022-10-31T15:12:35.503Z,12.85
2022-10-31T15:15:22.271Z,13.05
2022-10-31T15:18:02.841Z,14.55
2022-10-31T15:20:38.542Z,14.13
2022-10-31T15:23:05.789Z,15.60
2022-10-31T15:25:36.238Z,17.90
2022-10-31T15:28:13.778Z,15.45
2022-10-31T15:30:40.131Z,15.57
2022-10-31T15:33:38.247Z,17.98
2022-10-31T15:36:06.631Z,19.70
2022-10-31T15:38:34.418Z,20.65
2022-10-31T15:41:07.337Z,17.95
2022-10-31T15:43:38.152Z,17.85
2022-10-31T15:46:07.806Z,18.20
2022-10-31T15:48:35.486Z,17.52
2022-10-31T15:51:03.820Z,16.80
2022-10-31T15:53:38.026Z,17.27
2022-10-31T15:56:12.695Z,16.50
2022-10-31T15:58:49.621Z,18.65
2022-10-31T16:01:25.220Z,17.33
2022-10-31T16:04:08.406Z,18.75
2022-10-31T16:06:35.962Z,18.00
2022-10-31T16:09:03.966Z,17.08
2022-10-31T16:11:37.821Z,14.98
2022-10-31T16:14:10.145Z,14.50
2022-10-31T16:16:49.557Z,13.85
2022-10-31T16:19:35.109Z,13.80
2022-10-31T16:22:14.501Z,13.75
2022-10-31T16:24:49.771Z,12.82
2022-10-31T16:27:20.290Z,14.13
2022-10-31T16:29:47.913Z,14.80
2022-10-31T16:32:36.893Z,14.80
2022-10-31T16:35:08.942Z,14.15
2022-10-31T16:37:38.611Z,14.40
2022-10-31T16:40:05.542Z,14.48
2022-10-31T16:42:31.915Z,12.93
2022-10-31T16:45:00.148Z,12.82
2022-10-31T16:47:28.586Z,12.23
2022-10-31T16:49:55.231Z,13.55
2022-10-31T16:52:22.122Z,11.88
2022-10-31T16:54:48.503Z,13.20
2022-10-31T16:57:23.641Z,12.77
2022-10-31T16:59:54.655Z,12.65
2022-10-31T17:02:21.961Z,12.77
2022-10-31T17:04:50.904Z,14.32
2022-10-31T17:07:20.964Z,11.02
2022-10-31T17:09:47.282Z,12.20
2022-10-31T17:12:21.864Z,10.73
2022-10-31T17:14:52.131Z,10.30
2022-10-31T17:17:18.460Z,9.07
2022-10-31T17:19:44.794Z,11.40
2022-10-31T17:22:12.945Z,12.50
2022-10-31T17:24:39.359Z,16.38
2022-10-31T17:27:06.168Z,15.10
2022-10-31T17:29:32.874Z,14.40
2022-10-31T17:32:00.237Z,13.57
2022-10-31T17:34:27.085Z,12.88
2022-10-31T17:36:53.561Z,13.65
2022-10-31T17:39:20.289Z,13.85
2022-10-31T17:41:50.202Z,12.95
2022-10-31T17:44:16.538Z,13.80
2022-10-31T17:46:42.849Z,13.75
2022-10-31T17:49:12.369Z,15.15
2022-10-31T17:51:38.726Z,14.20
2022-10-31T17:54:06.847Z,13.85
2022-10-31T17:56:33.580Z,14.00
2022-10-31T17:59:00.005Z,14.77
2022-10-31T18:01:26.505Z,15.45
2022-10-31T18:03:53.010Z,15.60
2022-10-31T18:06:19.956Z,16.00
2022-10-31T18:08:46.700Z,17.67
2022-10-31T18:11:21.428Z,16.25
2022-10-31T18:13:48.007Z,16.80
2022-10-31T18:16:18.000Z,15.10
2022-10-31T18:18:44.547Z,15.63
2022-10-31T18:21:10.942Z,19.17
2022-10-31T18:23:37.684Z,24.33
2022-10-31T18:26:04.380Z,21.80
2022-10-31T18:28:30.716Z,19.73
2022-10-31T18:31:00.541Z,19.88
2022-10-31T18:33:27.529Z,14.38
2022-10-31T18:35:54.424Z,13.82
2022-10-31T18:38:21.003Z,12.90
2022-10-31T18:40:47.707Z,13.25
2022-10-31T18:43:14.717Z,14.75
2022-10-31T18:45:47.188Z,13.18
2022-10-31T18:48:16.336Z,13.32
2022-10-31T18:50:43.389Z,14.80
2022-10-31T18:53:09.901Z,14.32
2022-10-31T18:55:45.446Z,14.57
2022-10-31T18:58:16.630Z,15.95
2022-10-31T19:00:43.041Z,17.40
2022-10-31T19:03:09.465Z,18.67
2022-10-31T19:05:36.141Z,18.67
2022-10-31T19:08:02.569Z,17.98
2022-10-31T19:10:29.170Z,17.30
2022-10-31T19:12:56.021Z,18.10
2022-10-31T19:15:22.753Z,16.85
2022-10-31T19:17:49.351Z,17.35
2022-10-31T19:20:15.892Z,18.38
2022-10-31T19:22:42.625Z,17.83
2022-10-31T19:25:10.631Z,17.40
2022-10-31T19:27:37.444Z,18.38
2022-10-31T19:30:05.141Z,19.27
2022-10-31T19:32:31.472Z,18.25
2022-10-31T19:34:57.803Z,16.90
2022-10-31T19:37:24.753Z,18.60
2022-10-31T19:39:51.685Z,18.98
2022-10-31T19:42:18.026Z,20.10
2022-10-31T19:44:44.723Z,17.38
2022-10-31T19:47:11.217Z,17.75
2022-10-31T19:49:37.730Z,23.05
2022-10-31T19:52:04.660Z,21.50
2022-10-31T19:54:31.990Z,23.45
2022-10-31T19:56:58.312Z,21.42
2022-10-31T19:59:26.064Z,20.95
2022-10-31T20:01:52.492Z,19.42
2022-10-31T20:04:18.872Z,20.63
2022-10-31T20:06:45.244Z,21.58
2022-10-31T20:09:13.865Z,20.80
2022-10-31T20:11:42.130Z,17.95
2022-10-31T20:14:11.021Z,17.95
2022-10-31T20:16:37.451Z,16.05
2022-10-31T20:19:04.029Z,16.38
2022-10-31T20:21:32.346Z,17.38
2022-10-31T20:24:05.623Z,18.40
2022-10-31T20:26:33.573Z,16.85
2022-10-31T20:29:01.441Z,18.05
2022-10-31T20:31:30.802Z,16.77
2022-10-31T20:33:58.087Z,16.15
2022-10-31T20:36:25.186Z,17.17
2022-10-31T20:38:52.492Z,17.98
2022-10-31T20:41:19.728Z,17.70
2022-10-31T20:43:46.405Z,23.77
2022-10-31T20:46:16.686Z,20.40
2022-10-31T20:48:43.522Z,17.40
2022-10-31T20:53:48.604Z,16.83
2022-10-31T20:56:18.577Z,16.70
2022-10-31T20:58:45.810Z,19.27
2022-10-31T21:01:25.900Z,18.08
2022-10-31T21:03:53.088Z,16.75
2022-10-31T21:06:21.274Z,18.63
2022-10-31T21:08:48.086Z,18.95
2022-10-31T21:11:16.926Z,18.42
2022-10-31T21:13:44.997Z,17.58
2022-10-31T21:16:27.275Z,16.50
2022-10-31T21:18:54.320Z,17.13
2022-10-31T21:21:20.610Z,19.10
2022-10-31T21:23:47.750Z,17.30
2022-10-31T21:26:17.275Z,17.05
2022-10-31T21:28:44.058Z,16.17
2022-10-31T21:31:13.365Z,14.98
2022-10-31T21:33:40.014Z,16.40
2022-10-31T21:36:07.065Z,15.85
2022-10-31T21:38:35.081Z,14.93
2022-10-31T21:41:05.561Z,14.30
2022-10-31T21:43:34.462Z,15.48
2022-10-31T21:46:06.292Z,14.27
2022-10-31T21:48:33.157Z,14.90
2022-10-31T21:51:04.091Z,15.75
2022-10-31T21:53:49.908Z,15.77
2022-10-31T21:56:17.058Z,14.43
2022-10-31T21:58:43.360Z,16.33
2022-10-31T22:01:10.227Z,16.23
2022-10-31T22:03:38.307Z,16.60
2022-10-31T22:06:07.328Z,15.63
2022-10-31T22:08:34.310Z,16.05
2022-10-31T22:11:05.244Z,16.88
2022-10-31T22:13:32.618Z,16.73
2022-10-31T22:16:04.537Z,15.60
2022-10-31T22:18:31.214Z,14.52
2022-10-31T22:21:05.742Z,14.77
2022-10-31T22:23:32.285Z,15.50
2022-10-31T22:26:06.843Z,14.57
2022-10-31T22:28:34.210Z,13.43
2022-10-31T22:31:08.554Z,12.10
2022-10-31T22:33:36.397Z,11.90
2022-10-31T22:36:05.486Z,10.88
2022-10-31T22:38:40.113Z,11.93
2022-10-31T22:41:08.454Z,10.90
2022-10-31T22:43:35.009Z,11.45
2022-10-31T22:46:05.275Z,11.45
2022-10-31T22:48:37.684Z,12.98
2022-10-31T22:51:17.797Z,12.85
2022-10-31T22:53:45.344Z,11.90
2022-10-31T22:56:15.793Z,12.52
2022-10-31T22:58:42.772Z,13.00
2022-10-31T23:01:15.594Z,12.10
2022-10-31T23:03:42.098Z,13.23
2022-10-31T23:06:14.700Z,11.75
2022-10-31T23:08:41.869Z,13.05
2022-10-31T23:11:27.723Z,11.77
2022-10-31T23:14:14.346Z,11.65
2022-10-31T23:16:52.264Z,11.82
2022-10-31T23:19:23.615Z,12.20
2022-10-31T23:22:02.617Z,11.70
2022-10-31T23:24:37.158Z,11.38
2022-10-31T23:27:09.100Z,10.98
2022-10-31T23:29:51.094Z,9.93
2022-10-31T23:32:37.636Z,9.68
2022-10-31T23:35:07.894Z,10.85
2022-10-31T23:37:35.957Z,10.85
2022-10-31T23:40:02.757Z,9.68
2022-10-31T23:42:29.835Z,9.32
2022-10-31T23:44:56.352Z,10.48
2022-10-31T23:47:23.705Z,9.75
2022-10-31T23:49:50.683Z,9.95
2022-10-31T23:52:17.529Z,10.25
2022-10-31T23:54:44.285Z,8.85
2022-10-31T23:57:12.670Z,9.85
2022-10-31T23:59:39.688Z,14.27
